Time;durP1;ratioP1;P1;durP2;ratioP2;P2;SDS_P1;SDS_P2;PMS_P1;PMS_P2;Temp;Humidity;BMP_temperature;BMP_pressure;BME280_temperature;BME280_humidity;BME280_pressure;Samples;Min_cycle;Max_cycle;Signal;HPM_P1;HPM_P2
2023/01/27 00:01:06;;;;;;;;;1.50;1.00;;;;;7.57;77.39;102281.28;5117626;27;46796;-64
2023/01/27 00:03:31;;;;;;;;;1.00;1.00;;;;;7.58;77.14;102286.53;5117246;27;45491;-65
2023/01/27 00:06:00;;;;;;;;;1.25;0.25;;;;;7.53;77.12;102269.84;5117838;27;45326;-64
2023/01/27 00:08:26;;;;;;;;;4.25;1.00;;;;;7.55;77.04;102269.88;5117273;27;45448;-64
2023/01/27 00:13:25;;;;;;;;;2.00;1.00;;;;;7.56;77.36;102271.63;5117231;27;46747;-64
2023/01/27 00:13:42;;;;;;;;;0.00;0.00;;;;;7.58;77.00;102268.19;5117882;27;45461;-64
2023/01/27 00:16:08;;;;;;;;;4.00;1.00;;;;;7.59;77.29;102275.19;5117980;27;45504;-65
2023/01/27 00:18:33;;;;;;;;;4.75;2.00;;;;;7.55;77.22;102272.50;5118149;27;45644;-65
2023/01/27 00:26:26;;;;;;;;;2.00;0.00;;;;;7.54;76.96;102275.97;5136149;27;45271;-64
2023/01/27 00:28:52;;;;;;;;;6.50;2.50;;;;;7.31;76.87;102239.84;5140370;27;45190;-64
2023/01/27 00:34:07;;;;;;;;;3.50;1.00;;;;;7.49;76.78;102274.19;5118864;27;45417;-64
2023/01/27 00:36:34;;;;;;;;;2.00;2.00;;;;;7.50;76.73;102275.91;5118553;27;45319;-64
2023/01/27 00:38:59;;;;;;;;;1.00;0.00;;;;;7.56;76.79;102287.38;5119419;27;45258;-65
2023/01/27 00:41:27;;;;;;;;;2.25;0.75;;;;;7.55;76.86;102278.63;5126039;27;46205;-65
2023/01/27 00:43:53;;;;;;;;;3.00;0.50;;;;;7.55;76.62;102270.78;5118979;27;45441;-65
2023/01/27 00:46:21;;;;;;;;;2.25;0.50;;;;;7.53;76.67;102268.97;5118996;27;45496;-64
2023/01/27 00:48:46;;;;;;;;;1.75;1.75;;;;;7.52;76.74;102267.22;5117377;27;45686;-64
2023/01/27 00:51:13;;;;;;;;;5.00;2.00;;;;;7.51;76.51;102255.84;5118667;27;45405;-64
2023/01/27 00:53:39;;;;;;;;;3.75;1.25;;;;;7.50;76.29;102262.81;5118762;27;45289;-65
2023/01/27 00:56:05;;;;;;;;;1.50;0.00;;;;;7.49;76.68;102265.41;5118351;27;45485;-64
2023/01/27 00:58:31;;;;;;;;;4.00;1.00;;;;;7.46;76.83;102265.38;5127582;27;45406;-64
2023/01/27 01:00:58;;;;;;;;;2.25;1.00;;;;;7.51;76.68;102268.97;5139218;27;45456;-65
2023/01/27 01:03:24;;;;;;;;;2.50;2.50;;;;;7.42;76.55;102250.47;5127511;27;45470;-65
2023/01/27 01:05:50;;;;;;;;;2.00;1.00;;;;;7.51;76.72;102263.72;5118521;27;45488;-64
2023/01/27 01:08:16;;;;;;;;;1.00;1.00;;;;;7.53;76.78;102261.13;5118097;27;45428;-64
2023/01/27 01:10:41;;;;;;;;;0.00;0.00;;;;;7.52;76.56;102261.97;5118257;27;46738;-64
2023/01/27 01:13:08;;;;;;;;;1.25;1.00;;;;;7.21;76.48;102211.75;5118041;27;45487;-64
2023/01/27 01:15:35;;;;;;;;;2.50;0.50;;;;;7.50;76.38;102254.97;5133647;27;45597;-65
2023/01/27 01:18:02;;;;;;;;;2.75;0.00;;;;;7.43;76.35;102240.00;5137877;27;45508;-65
2023/01/27 01:20:28;;;;;;;;;1.50;0.00;;;;;7.26;76.24;102213.56;5138855;27;45464;-64
2023/01/27 01:22:53;;;;;;;;;2.25;0.00;;;;;7.37;76.47;102234.69;5139164;27;45391;-64
2023/01/27 01:25:18;;;;;;;;;0.00;0.00;;;;;7.43;75.85;102237.38;5119762;27;45439;-64
2023/01/27 01:27:44;;;;;;;;;1.50;0.50;;;;;7.46;75.81;102244.41;5118427;27;45349;-64
2023/01/27 01:30:10;;;;;;;;;3.25;0.00;;;;;7.43;76.12;102247.00;5117658;27;46166;-64
2023/01/27 01:32:35;;;;;;;;;3.75;0.50;;;;;7.35;75.86;102232.88;5132657;27;45488;-65
2023/01/27 01:35:01;;;;;;;;;1.50;1.00;;;;;7.43;75.95;102253.09;5139149;27;45438;-64
2023/01/27 01:37:26;;;;;;;;;1.50;1.25;;;;;7.45;75.78;102247.88;5142507;27;45484;-65
2023/01/27 01:39:51;;;;;;;;;2.75;2.00;;;;;7.43;75.67;102250.47;5142371;27;46030;-65
2023/01/27 01:42:17;;;;;;;;;8.00;1.25;;;;;7.45;75.77;102243.53;5142600;27;45335;-64
2023/01/27 01:44:43;;;;;;;;;2.00;1.00;;;;;7.40;75.50;102229.47;5120230;27;45481;-64
2023/01/27 01:47:15;;;;;;;;;2.25;1.00;;;;;7.42;75.45;102235.63;5127074;27;45460;-65
2023/01/27 01:49:42;;;;;;;;;1.50;0.00;;;;;7.32;75.44;102224.13;5142135;27;47428;-65
2023/01/27 01:52:16;;;;;;;;;2.75;0.75;;;;;7.42;75.79;102245.22;5142263;27;45295;-65
2023/01/27 01:54:55;;;;;;;;;3.25;0.75;;;;;7.41;75.63;102238.25;5142651;27;45364;-64
2023/01/27 01:57:27;;;;;;;;;5.75;4.25;;;;;7.37;75.51;102242.53;5142750;27;45237;-65
2023/01/27 02:00:00;;;;;;;;;5.00;1.00;;;;;7.36;75.46;102238.16;5124691;27;46431;-64
2023/01/27 02:02:27;;;;;;;;;6.00;2.00;;;;;7.25;75.99;102230.13;5121246;27;45356;-64
2023/01/27 02:05:01;;;;;;;;;2.25;0.00;;;;;7.38;75.75;102243.41;5125370;27;46279;-64
2023/01/27 02:07:43;;;;;;;;;5.25;1.00;;;;;7.37;75.79;102231.19;5142392;27;45479;-64
2023/01/27 02:10:10;;;;;;;;;2.25;0.00;;;;;7.36;75.79;102237.28;5141621;27;46619;-64
2023/01/27 02:12:36;;;;;;;;;4.25;1.00;;;;;7.31;75.69;102231.97;5137553;27;45479;-64
2023/01/27 02:15:03;;;;;;;;;4.00;1.25;;;;;7.31;75.97;102229.34;5121185;27;45461;-64
2023/01/27 02:17:28;;;;;;;;;0.75;0.50;;;;;7.31;76.11;102235.47;5121482;27;45557;-64
2023/01/27 02:19:54;;;;;;;;;3.00;1.00;;;;;7.31;76.28;102235.47;5120957;27;46282;-64
2023/01/27 02:22:45;;;;;;;;;0.50;0.25;;;;;7.29;76.30;102237.19;5120808;27;48032;-64
2023/01/27 02:25:27;;;;;;;;;0.75;0.75;;;;;7.29;76.39;102226.72;5142018;27;45530;-64
2023/01/27 02:27:52;;;;;;;;;2.50;1.00;;;;;7.31;76.49;102222.38;5142120;27;45505;-64
2023/01/27 02:30:18;;;;;;;;;4.00;1.00;;;;;7.34;76.54;102225.91;5138810;27;46535;-65
2023/01/27 02:32:43;;;;;;;;;4.75;1.00;;;;;7.25;76.77;102216.19;5121126;27;45491;-65
2023/01/27 02:35:15;;;;;;;;;3.00;1.50;;;;;7.31;76.40;102221.50;5120024;27;45418;-64
2023/01/27 02:37:41;;;;;;;;;2.75;1.75;;;;;7.27;76.67;102217.06;5121410;27;45437;-64
2023/01/27 02:40:09;;;;;;;;;1.00;1.00;;;;;7.28;76.97;102211.84;5128715;27;45830;-64
2023/01/27 02:42:34;;;;;;;;;7.25;1.25;;;;;7.26;76.67;102208.34;5135795;27;45546;-64
2023/01/27 02:45:00;;;;;;;;;3.50;2.25;;;;;7.23;76.94;102202.16;5120213;27;45436;-64
2023/01/27 02:47:25;;;;;;;;;2.00;1.00;;;;;7.28;76.86;102219.69;5119143;27;45515;-64
2023/01/27 02:49:53;;;;;;;;;1.25;1.00;;;;;7.28;76.72;102206.59;5120551;27;45663;-65
2023/01/27 02:52:18;;;;;;;;;3.50;2.00;;;;;7.29;76.78;102217.94;5120792;27;45331;-64
2023/01/27 02:54:44;;;;;;;;;4.00;1.25;;;;;7.29;76.69;102216.25;5120144;27;45354;-64
2023/01/27 02:57:09;;;;;;;;;3.25;1.75;;;;;7.31;77.03;102221.50;5119372;27;46304;-64
2023/01/27 02:59:34;;;;;;;;;4.25;1.75;;;;;7.32;76.90;102218.91;5120447;27;46017;-64
2023/01/27 03:02:00;;;;;;;;;2.50;0.50;;;;;7.34;76.85;102218.03;5120634;27;45454;-64
2023/01/27 03:04:26;;;;;;;;;3.00;1.50;;;;;7.31;76.95;102211.88;5120595;27;45408;-64
2023/01/27 03:06:51;;;;;;;;;1.50;1.00;;;;;7.27;76.88;102209.22;5120707;27;45739;-65
2023/01/27 03:09:17;;;;;;;;;5.25;1.50;;;;;7.36;76.76;102219.81;5120369;27;46404;-65
2023/01/27 03:19:54;;;;;;;;;4.50;1.00;;;;;7.33;76.47;102222.38;5138173;27;45743;-65
2023/01/27 03:22:19;;;;;;;;;3.25;2.00;;;;;7.38;76.66;102225.06;5120167;27;45397;-64
2023/01/27 03:24:44;;;;;;;;;3.25;0.00;;;;;7.30;76.35;102211.88;5120348;27;45450;-64
2023/01/27 03:27:10;;;;;;;;;0.00;0.00;;;;;7.36;76.27;102217.19;5120672;27;45373;-64
2023/01/27 03:29:53;;;;;;;;;7.25;1.00;;;;;7.36;75.79;102221.56;5119897;27;47491;-64
2023/01/27 03:32:19;;;;;;;;;3.25;0.25;;;;;7.37;76.20;102216.34;5136578;27;45435;-63
2023/01/27 03:34:44;;;;;;;;;2.00;0.75;;;;;7.38;75.58;102227.69;5138077;27;46867;-65
2023/01/27 03:48:05;;;;;;;;;4.00;1.00;;;;;7.36;75.51;102218.94;5122226;27;45505;-65
2023/01/27 03:50:36;;;;;;;;;1.00;1.00;;;;;7.35;75.70;102214.53;5140229;27;45496;-65
2023/01/27 03:53:03;;;;;;;;;2.25;0.00;;;;;7.38;75.24;102211.97;5128494;27;45425;-65
2023/01/27 03:55:30;;;;;;;;;4.00;0.50;;;;;7.35;75.33;102214.53;5119822;27;45347;-65
2023/01/27 03:57:55;;;;;;;;;0.75;0.75;;;;;7.24;75.67;102191.69;5119890;27;45541;-65
2023/01/27 04:00:22;;;;;;;;;0.00;0.00;;;;;7.36;75.60;102211.94;5118972;27;46531;-65
2023/01/27 04:08:15;;;;;;;;;3.50;0.50;;;;;7.39;75.31;102205.88;5119487;27;45342;-65
2023/01/27 04:11:53;;;;;;;;;2.50;0.50;;;;;7.44;75.21;102209.47;5118617;27;45988;-65
2023/01/27 04:13:25;;;;;;;;;7.75;1.00;;;;;7.46;75.38;102202.47;5128851;27;45423;-65
2023/01/27 04:15:53;;;;;;;;;2.25;1.50;;;;;7.40;75.40;102194.53;5140274;27;45344;-65
2023/01/27 04:18:18;;;;;;;;;6.00;0.00;;;;;7.44;75.39;102196.34;5140436;27;45301;-65
2023/01/27 04:20:44;;;;;;;;;2.00;0.00;;;;;7.46;75.43;102192.91;5122253;27;46505;-65
2023/01/27 04:23:09;;;;;;;;;2.75;0.00;;;;;7.45;75.48;102201.63;5119330;27;45343;-65
2023/01/27 04:25:34;;;;;;;;;3.00;0.00;;;;;7.43;75.53;102202.44;5118700;27;45340;-65
2023/01/27 04:28:00;;;;;;;;;3.00;0.50;;;;;7.45;75.70;102211.19;5119379;27;45887;-65
2023/01/27 04:30:26;;;;;;;;;3.50;1.00;;;;;7.31;75.68;102192.69;5121460;27;46117;-65
2023/01/27 04:32:51;;;;;;;;;2.25;0.75;;;;;7.41;75.84;102210.28;5139354;27;45387;-64
2023/01/27 04:35:16;;;;;;;;;6.00;2.00;;;;;7.37;76.04;102190.13;5118918;27;45396;-65
2023/01/27 04:37:41;;;;;;;;;5.00;1.00;;;;;7.43;75.76;102203.31;5117425;27;45411;-65
2023/01/27 04:40:10;;;;;;;;;1.25;1.00;;;;;7.41;75.88;102201.56;5118928;27;45265;-66
2023/01/27 04:42:35;;;;;;;;;4.50;1.25;;;;;7.45;75.83;102208.56;5118859;27;45406;-66
2023/01/27 04:45:00;;;;;;;;;8.00;2.50;;;;;7.38;75.95;102191.00;5118294;27;45233;-66
2023/01/27 04:47:26;;;;;;;;;7.00;1.00;;;;;7.44;75.92;102205.09;5128500;27;45466;-66
2023/01/27 04:49:51;;;;;;;;;5.25;2.00;;;;;7.45;75.91;102206.84;5139430;27;46534;-66
2023/01/27 04:52:16;;;;;;;;;3.00;1.00;;;;;7.39;76.09;102190.16;5138873;27;45361;-66
2023/01/27 04:54:42;;;;;;;;;4.25;1.50;;;;;7.47;76.29;102207.75;5118840;27;45441;-66
2023/01/27 04:57:08;;;;;;;;;3.00;2.50;;;;;7.44;76.02;102212.06;5118860;27;45476;-66
2023/01/27 04:59:33;;;;;;;;;7.50;1.00;;;;;7.40;76.05;102205.03;5118739;27;47459;-66
2023/01/27 05:01:58;;;;;;;;;2.50;2.25;;;;;7.43;76.41;102203.31;5118168;27;46936;-65
2023/01/27 05:04:25;;;;;;;;;5.25;2.00;;;;;7.38;75.85;102193.63;5126687;27;45433;-65
2023/01/27 05:06:50;;;;;;;;;4.25;1.50;;;;;7.31;76.19;102196.16;5118688;27;45343;-64
2023/01/27 05:09:16;;;;;;;;;4.50;1.00;;;;;7.26;76.63;102200.47;5118223;27;46459;-64
2023/01/27 05:11:41;;;;;;;;;0.00;0.00;;;;;7.32;76.38;102205.78;5116864;27;45162;-64
2023/01/27 05:14:06;;;;;;;;;2.75;1.00;;;;;7.36;76.67;102211.06;5118608;27;45284;-64
2023/01/27 05:16:32;;;;;;;;;5.00;1.25;;;;;7.30;76.26;102209.25;5118357;27;45216;-64
2023/01/27 05:18:57;;;;;;;;;4.75;3.00;;;;;7.30;76.77;102215.38;5118358;27;47498;-64
2023/01/27 05:21:27;;;;;;;;;2.00;1.00;;;;;7.38;76.76;102217.22;5125436;27;45374;-64
2023/01/27 05:23:52;;;;;;;;;7.75;3.00;;;;;7.40;76.48;102221.63;5139068;27;45476;-64
2023/01/27 05:26:26;;;;;;;;;6.25;2.00;;;;;7.37;76.45;102225.94;5139180;27;45363;-64
2023/01/27 05:28:53;;;;;;;;;1.00;0.00;;;;;7.31;76.36;102214.50;5138831;27;47248;-64
2023/01/27 05:31:30;;;;;;;;;3.75;2.00;;;;;7.35;76.34;102211.94;5118035;27;45418;-64
2023/01/27 05:33:58;;;;;;;;;5.00;3.00;;;;;7.36;76.03;102211.06;5118359;27;45287;-64
2023/01/27 05:36:25;;;;;;;;;4.75;3.50;;;;;7.33;76.31;102211.91;5117007;27;45519;-64
2023/01/27 05:38:51;;;;;;;;;3.00;2.00;;;;;7.34;76.11;102208.44;5130074;27;45701;-65
2023/01/27 05:41:18;;;;;;;;;7.25;3.00;;;;;7.32;76.20;102210.16;5138902;27;45458;-64
2023/01/27 05:43:45;;;;;;;;;4.00;4.00;;;;;7.38;76.12;102227.69;5124956;27;45339;-64
2023/01/27 05:46:16;;;;;;;;;5.50;5.00;;;;;7.35;75.78;102215.44;5118402;27;45448;-64
2023/01/27 05:48:43;;;;;;;;;10.50;5.00;;;;;7.32;75.90;102223.28;5116333;27;46551;-64
2023/01/27 05:51:10;;;;;;;;;4.25;3.00;;;;;7.33;75.59;102230.25;5117821;27;45634;-64
2023/01/27 05:53:36;;;;;;;;;7.50;5.50;;;;;7.31;74.81;102221.50;5122953;27;45282;-65
2023/01/27 05:56:02;;;;;;;;;7.00;4.50;;;;;7.32;74.84;102229.38;5138789;27;45397;-64
2023/01/27 05:58:28;;;;;;;;;9.67;6.33;;;;;7.30;73.95;102225.88;5138654;27;46306;-64
2023/01/27 06:00:54;;;;;;;;;9.25;7.25;;;;;7.24;73.96;102219.66;5125353;27;45753;-64
2023/01/27 06:03:20;;;;;;;;;8.67;8.00;;;;;7.30;73.88;102235.44;5117185;27;45402;-64
2023/01/27 06:05:56;;;;;;;;;8.00;8.00;;;;;7.19;73.82;102216.97;5116356;27;45548;-64
2023/01/27 06:08:23;;;;;;;;;18.33;10.33;;;;;7.29;73.95;102236.28;5116755;27;45457;-64
2023/01/27 06:10:48;;;;;;;;;10.67;9.33;;;;;7.23;73.35;102236.22;5136280;27;45371;-65
2023/01/27 06:13:14;;;;;;;;;9.00;5.00;;;;;7.26;73.79;102238.88;5118747;27;45417;-65
2023/01/27 06:15:41;;;;;;;;;17.00;10.00;;;;;7.22;73.44;102250.16;5118041;27;45775;-65
2023/01/27 06:18:07;;;;;;;;;13.33;10.67;;;;;7.22;73.79;102242.28;5117495;27;45279;-65
2023/01/27 06:20:32;;;;;;;;;9.00;8.00;;;;;7.18;72.72;102246.63;5117368;27;45402;-65
2023/01/27 06:22:57;;;;;;;;;10.67;7.00;;;;;7.12;72.85;102251.78;5119915;27;45374;-65
2023/01/27 06:25:23;;;;;;;;;6.33;6.00;;;;;7.15;73.05;102257.94;5121551;27;45332;-65
2023/01/27 06:27:53;;;;;;;;;5.00;5.00;;;;;7.07;73.08;102263.91;5130779;27;46343;-65
2023/01/27 06:30:18;;;;;;;;;5.00;5.00;;;;;7.05;72.62;102260.38;5138157;27;45314;-65
2023/01/27 06:32:43;;;;;;;;;9.00;6.00;;;;;6.95;72.69;102248.88;5121171;27;45819;-65
2023/01/27 06:35:09;;;;;;;;;10.25;7.00;;;;;7.05;72.51;102263.88;5120270;27;45468;-65
2023/01/27 06:37:37;;;;;;;;;12.33;7.67;;;;;7.09;72.94;102280.53;5120949;27;46499;-65
2023/01/27 06:40:04;;;;;;;;;10.67;9.00;;;;;7.07;72.90;102282.22;5120868;27;45228;-65
2023/01/27 06:42:30;;;;;;;;;12.00;11.00;;;;;6.96;71.87;102269.84;5120080;27;45341;-65
2023/01/27 06:44:55;;;;;;;;;19.67;14.67;;;;;6.93;71.75;102272.41;5123892;27;45432;-65
2023/01/27 06:47:21;;;;;;;;;14.00;12.00;;;;;6.84;71.69;102274.88;5141332;27;46448;-65
2023/01/27 06:49:46;;;;;;;;;15.33;15.33;;;;;6.86;72.02;102288.88;5141481;27;45478;-64
2023/01/27 06:52:12;;;;;;;;;18.00;16.00;;;;;6.86;71.51;102280.16;5141389;27;45502;-65
2023/01/27 06:54:37;;;;;;;;;22.33;17.67;;;;;6.78;71.93;102286.13;5136356;27;45313;-65
2023/01/27 06:57:02;;;;;;;;;18.33;17.33;;;;;6.80;71.78;102283.53;5120394;27;46059;-64
2023/01/27 06:59:28;;;;;;;;;21.67;18.00;;;;;6.77;72.13;102284.34;5120566;27;45299;-64
2023/01/27 07:01:53;;;;;;;;;23.00;17.00;;;;;6.76;72.05;102284.34;5133076;27;45432;-64
2023/01/27 07:04:18;;;;;;;;;22.00;22.00;;;;;6.77;72.21;102299.19;5128093;27;45437;-64
2023/01/27 07:06:44;;;;;;;;;21.00;17.00;;;;;6.67;72.40;102287.66;5120398;27;45511;-63
2023/01/27 07:09:10;;;;;;;;;20.67;18.33;;;;;6.71;72.50;102304.28;5119528;27;45521;-64
2023/01/27 07:11:35;;;;;;;;;24.00;16.00;;;;;6.65;72.01;102306.81;5120187;27;45342;-64
2023/01/27 07:14:01;;;;;;;;;15.00;13.33;;;;;6.41;72.27;102269.72;5120603;27;45536;-64
2023/01/27 07:16:27;;;;;;;;;14.67;13.00;;;;;6.55;71.52;102316.22;5124572;27;45551;-64
2023/01/27 07:18:52;;;;;;;;;15.00;12.67;;;;;6.52;71.75;102316.16;5141000;27;45403;-64
2023/01/27 07:21:17;;;;;;;;;15.33;11.00;;;;;6.56;71.22;102326.69;5141006;27;45466;-64
2023/01/27 07:23:43;;;;;;;;;13.33;9.00;;;;;6.50;71.03;102328.34;5141073;27;45229;-64
2023/01/27 07:26:08;;;;;;;;;13.33;11.33;;;;;6.09;70.64;102262.13;5140839;27;45421;-64
2023/01/27 07:28:33;;;;;;;;;11.00;9.00;;;;;6.50;71.12;102336.19;5140773;27;45434;-64
2023/01/27 07:31:01;;;;;;;;;15.33;13.33;;;;;6.48;71.33;102333.53;5129603;27;45450;-64
2023/01/27 07:33:26;;;;;;;;;8.67;8.00;;;;;6.35;71.39;102318.47;5121908;27;45601;-64
2023/01/27 07:35:51;;;;;;;;;17.00;11.67;;;;;6.40;71.91;102337.72;5136166;27;45245;-64
2023/01/27 07:38:17;;;;;;;;;9.33;8.33;;;;;6.41;71.64;102336.88;5119938;27;45314;-64
2023/01/27 07:40:42;;;;;;;;;14.67;9.00;;;;;6.45;71.63;102344.81;5118778;27;46184;-64
2023/01/27 07:43:09;;;;;;;;;15.33;11.67;;;;;6.46;71.62;102348.31;5119926;27;45420;-64
2023/01/27 07:45:34;;;;;;;;;16.00;9.33;;;;;6.44;71.98;102342.19;5119166;27;46201;-64
2023/01/27 07:48:02;;;;;;;;;18.67;14.33;;;;;6.47;71.76;102352.69;5119677;27;45199;-64
2023/01/27 07:50:28;;;;;;;;;17.00;14.67;;;;;6.36;71.79;102336.81;5133494;27;45216;-64
2023/01/27 07:52:53;;;;;;;;;19.00;14.67;;;;;6.43;72.10;102362.25;5140736;27;45437;-64
2023/01/27 07:55:18;;;;;;;;;21.00;15.00;;;;;6.39;71.88;102363.03;5140195;27;46386;-63
2023/01/27 07:57:44;;;;;;;;;24.33;15.00;;;;;6.27;72.25;102355.81;5140242;27;45452;-64
2023/01/27 08:00:14;;;;;;;;;15.33;15.33;;;;;6.28;72.51;102351.44;5125211;27;45332;-63
2023/01/27 08:02:39;;;;;;;;;22.00;16.67;;;;;6.33;71.93;102370.75;5118524;27;45507;-63
2023/01/27 08:05:05;;;;;;;;;21.67;17.00;;;;;6.27;72.08;102360.13;5126167;27;45537;-63
2023/01/27 08:07:31;;;;;;;;;22.33;20.00;;;;;6.27;72.02;102375.81;5128725;27;45290;-63
2023/01/27 08:09:56;;;;;;;;;20.33;15.67;;;;;6.21;72.41;102370.47;5118770;27;45481;-63
2023/01/27 08:12:22;;;;;;;;;27.67;17.33;;;;;6.23;72.58;102368.75;5116555;27;45437;-63
2023/01/27 08:14:47;;;;;;;;;16.67;14.67;;;;;6.24;72.90;102371.41;5116030;27;46360;-63
2023/01/27 08:17:13;;;;;;;;;28.00;17.00;;;;;6.18;73.00;102360.81;5118052;27;45244;-63
2023/01/27 08:19:38;;;;;;;;;18.00;14.67;;;;;6.30;72.92;102377.63;5119239;27;45457;-63
2023/01/27 08:22:03;;;;;;;;;16.67;16.33;;;;;6.34;72.61;102371.63;5115131;27;45495;-63
2023/01/27 08:24:28;;;;;;;;;21.00;16.00;;;;;6.20;72.57;102358.22;5116187;27;46563;-63
2023/01/27 08:26:54;;;;;;;;;21.67;17.33;;;;;6.31;72.65;102371.56;5114748;27;45473;-62
2023/01/27 08:29:20;;;;;;;;;22.00;17.67;;;;;6.36;72.44;102386.50;5117804;27;45710;-63
2023/01/27 08:31:45;;;;;;;;;22.33;17.33;;;;;6.34;72.51;102393.41;5118058;27;45459;-63
2023/01/27 08:34:10;;;;;;;;;21.67;16.67;;;;;6.34;72.42;102401.25;5114935;27;46209;-63
2023/01/27 08:36:40;;;;;;;;;20.67;17.00;;;;;6.35;72.46;102399.56;5118965;27;45340;-63
2023/01/27 08:39:06;;;;;;;;;11.00;11.00;;;;;6.31;71.96;102408.19;5118984;27;45404;-64
2023/01/27 08:41:31;;;;;;;;;18.33;16.00;;;;;6.24;72.20;102408.03;5118816;27;45203;-63
2023/01/27 08:43:56;;;;;;;;;22.00;17.33;;;;;6.17;72.55;102400.91;5118664;27;45557;-63
2023/01/27 08:46:22;;;;;;;;;23.67;17.67;;;;;5.90;71.64;102352.34;5118021;27;45316;-63
2023/01/27 08:48:49;;;;;;;;;25.00;19.67;;;;;6.19;71.38;102412.28;5117949;27;45355;-63
2023/01/27 08:51:14;;;;;;;;;22.00;17.33;;;;;6.22;71.05;102420.19;5118350;27;45425;-63
2023/01/27 08:53:40;;;;;;;;;24.67;16.00;;;;;6.24;71.18;102423.72;5117050;27;45515;-63
2023/01/27 08:56:10;;;;;;;;;17.00;15.00;;;;;6.21;70.88;102428.88;5118145;27;45417;-62
2023/01/27 08:58:35;;;;;;;;;17.00;15.33;;;;;6.18;70.92;102422.72;5118742;27;45410;-63
2023/01/27 09:01:03;;;;;;;;;18.00;13.00;;;;;6.15;70.75;102413.06;5118625;27;45704;-63
2023/01/27 09:03:29;;;;;;;;;26.33;16.00;;;;;6.22;70.73;102416.72;5118034;27;45442;-63
2023/01/27 09:05:55;;;;;;;;;17.67;12.67;;;;;6.14;69.97;102434.81;5118510;27;45513;-63
2023/01/27 09:08:21;;;;;;;;;14.00;10.00;;;;;6.17;70.48;102431.41;5118378;27;45602;-63
2023/01/27 09:10:46;;;;;;;;;15.67;15.67;;;;;6.14;70.65;102436.56;5118219;27;45680;-63
2023/01/27 09:13:12;;;;;;;;;17.00;14.67;;;;;6.12;70.82;102431.31;5118182;27;45448;-63
2023/01/27 09:15:39;;;;;;;;;14.67;11.00;;;;;6.10;70.56;102426.03;5117634;27;45436;-63
2023/01/27 09:18:04;;;;;;;;;22.33;15.33;;;;;6.09;70.68;102420.78;5118387;27;45436;-63
2023/01/27 09:20:30;;;;;;;;;17.00;13.67;;;;;6.23;70.87;102435.06;5118463;27;45231;-63
2023/01/27 09:22:56;;;;;;;;;24.67;19.33;;;;;6.24;69.88;102435.91;5117937;27;47182;-63
2023/01/27 09:25:21;;;;;;;;;17.67;14.67;;;;;6.15;70.70;102426.13;5117648;27;45412;-63
2023/01/27 09:27:47;;;;;;;;;20.33;15.33;;;;;6.26;69.62;102435.13;5118056;27;45370;-63
2023/01/27 09:30:15;;;;;;;;;21.33;16.67;;;;;6.24;70.36;102435.91;5118558;27;45221;-63
2023/01/27 09:32:41;;;;;;;;;24.67;16.00;;;;;6.30;70.53;102443.03;5117930;27;46594;-63
2023/01/27 09:35:06;;;;;;;;;22.00;16.67;;;;;6.36;70.08;102441.44;5117999;27;45471;-63
2023/01/27 09:37:38;;;;;;;;;31.00;25.00;;;;;6.36;69.82;102454.53;5117596;27;45312;-63
2023/01/27 09:40:13;;;;;;;;;22.00;18.33;;;;;6.35;69.39;102447.50;5118024;27;45597;-63
2023/01/27 09:43:17;;;;;;;;;22.67;16.33;;;;;6.40;69.71;102458.06;5117938;27;46756;-63
2023/01/27 09:46:11;;;;;;;;;21.67;15.33;;;;;6.42;69.27;102457.28;5117781;27;45203;-63
2023/01/27 09:49:11;;;;;;;;;32.67;25.33;;;;;6.44;69.01;102457.31;5117709;27;45453;-63
2023/01/27 09:52:14;;;;;;;;;25.67;16.67;;;;;6.42;69.08;102452.03;5106300;27;45486;-63
2023/01/27 09:55:12;;;;;;;;;31.33;21.67;;;;;6.42;69.02;102459.00;5034055;28;45708;-63
2023/01/27 09:57:54;;;;;;;;;28.33;20.00;;;;;6.44;69.66;102462.53;4976454;28;45469;-63
2023/01/27 10:00:31;;;;;;;;;27.33;21.00;;;;;6.40;69.13;102453.72;4978261;28;45483;-63
2023/01/27 10:03:08;;;;;;;;;23.67;18.67;;;;;6.46;69.12;102463.44;4978478;28;45470;-63
2023/01/27 10:05:33;;;;;;;;;26.67;20.00;;;;;6.51;69.00;102450.47;4977713;28;45487;-62
2023/01/27 10:08:17;;;;;;;;;23.33;19.33;;;;;6.52;68.94;102455.75;4977906;28;45454;-62
2023/01/27 10:10:56;;;;;;;;;28.67;21.33;;;;;6.55;68.72;102460.13;4977869;28;45663;-62
2023/01/27 10:13:39;;;;;;;;;26.33;24.00;;;;;6.53;68.52;102462.72;4978293;28;45443;-62
2023/01/27 10:16:25;;;;;;;;;29.33;24.33;;;;;6.59;68.91;102469.81;4977685;28;46446;-62
2023/01/27 10:19:18;;;;;;;;;27.67;22.00;;;;;6.63;68.54;102458.56;4978100;28;45434;-62
2023/01/27 10:22:14;;;;;;;;;31.33;23.00;;;;;6.64;67.90;102460.34;4978018;28;45347;-62
2023/01/27 10:24:57;;;;;;;;;29.33;24.33;;;;;6.70;67.91;102457.84;4978010;28;45414;-62
2023/01/27 10:27:24;;;;;;;;;34.33;22.33;;;;;6.73;67.88;102459.66;4977346;28;46427;-62
2023/01/27 10:30:25;;;;;;;;;24.33;18.67;;;;;6.72;67.82;102457.88;4976155;28;45947;-64
2023/01/27 10:33:03;;;;;;;;;21.67;19.00;;;;;6.75;67.30;102461.47;4996437;28;45416;-62
2023/01/27 10:35:58;;;;;;;;;27.33;18.33;;;;;6.72;67.09;102445.66;5089876;27;45550;-62
2023/01/27 10:38:45;;;;;;;;;31.00;25.00;;;;;6.82;66.83;102461.59;5093242;27;46336;-62
2023/01/27 10:41:29;;;;;;;;;26.67;21.00;;;;;6.89;66.84;102456.50;5099895;27;45467;-62
2023/01/27 10:44:21;;;;;;;;;20.67;17.00;;;;;6.99;66.86;102462.81;5100205;27;45412;-62
2023/01/27 10:47:04;;;;;;;;;24.00;19.00;;;;;7.09;66.92;102467.38;5100350;27;45448;-62
2023/01/27 10:50:01;;;;;;;;;24.33;20.33;;;;;7.11;66.39;102447.31;5099942;27;45425;-62
2023/01/27 10:52:56;;;;;;;;;20.67;16.67;;;;;7.31;66.05;102465.16;5036582;28;45398;-63
2023/01/27 10:55:32;;;;;;;;;23.67;16.00;;;;;7.39;66.21;102446.97;5036982;28;45365;-62
2023/01/27 10:58:19;;;;;;;;;27.67;20.67;;;;;7.47;65.53;102459.34;5037074;28;45413;-63
2023/01/27 11:00:50;;;;;;;;;20.67;16.67;;;;;7.48;65.05;102458.50;5036687;28;46210;-63
2023/01/27 11:03:27;;;;;;;;;20.33;16.33;;;;;7.61;65.23;102451.72;5036696;28;45561;-62
2023/01/27 11:05:58;;;;;;;;;22.33;16.00;;;;;7.68;64.58;102444.84;5036623;28;45314;-63
2023/01/27 11:08:34;;;;;;;;;24.67;18.33;;;;;7.72;64.73;102446.66;5035906;28;45490;-62
2023/01/27 11:13:49;;;;;;;;;24.33;16.67;;;;;7.93;64.24;102447.84;5036687;28;45601;-63
2023/01/27 11:16:17;;;;;;;;;24.00;13.00;;;;;7.94;64.02;102445.25;5036681;28;45262;-62
2023/01/27 11:18:46;;;;;;;;;24.00;14.33;;;;;7.90;63.19;102437.31;5036705;28;45541;-63
2023/01/27 11:21:19;;;;;;;;;23.33;16.00;;;;;7.96;62.33;102435.69;5036181;28;45510;-62
2023/01/27 11:23:52;;;;;;;;;24.33;17.33;;;;;8.04;62.64;102437.53;5036398;28;45484;-62
2023/01/27 11:26:47;;;;;;;;;25.00;19.00;;;;;7.99;63.26;102413.88;5036487;28;45535;-63
2023/01/27 11:29:31;;;;;;;;;19.33;15.67;;;;;8.11;63.19;102436.78;5078186;27;45525;-63
2023/01/27 11:32:12;;;;;;;;;17.67;17.00;;;;;8.07;62.38;102419.22;5099218;27;46331;-63
2023/01/27 11:34:44;;;;;;;;;25.00;17.00;;;;;8.12;62.79;102430.69;5099511;27;45391;-63
2023/01/27 11:37:19;;;;;;;;;18.00;17.33;;;;;8.11;62.70;102431.53;5099367;27;45441;-63
2023/01/27 11:39:44;;;;;;;;;19.67;17.00;;;;;8.14;62.41;102428.94;5099560;27;45435;-62
2023/01/27 11:42:11;;;;;;;;;28.33;22.00;;;;;8.05;62.10;102413.09;5099128;27;46404;-63
2023/01/27 11:44:37;;;;;;;;;29.00;24.33;;;;;8.02;61.92;102413.91;5099321;27;45382;-63
2023/01/27 11:47:06;;;;;;;;;23.67;18.00;;;;;7.99;61.78;102417.38;5099265;27;45406;-63
2023/01/27 11:49:41;;;;;;;;;24.67;20.00;;;;;8.04;62.25;102419.19;5099486;27;45516;-62
2023/01/27 11:52:16;;;;;;;;;17.33;17.33;;;;;8.14;63.08;102423.69;5099150;27;45270;-62
2023/01/27 11:54:51;;;;;;;;;28.00;22.00;;;;;8.15;62.38;102420.22;5099044;27;45400;-62
2023/01/27 11:57:22;;;;;;;;;22.00;18.67;;;;;8.01;61.07;102410.38;5098973;27;45280;-63
2023/01/27 11:59:52;;;;;;;;;23.00;19.33;;;;;8.10;61.60;102424.50;5099296;27;45466;-62
2023/01/27 12:02:55;;;;;;;;;25.67;19.33;;;;;8.11;61.93;102414.03;5098824;27;45414;-63
2023/01/27 12:05:29;;;;;;;;;24.00;18.67;;;;;8.08;61.38;102408.75;5098905;27;45251;-62
2023/01/27 12:07:57;;;;;;;;;28.33;21.00;;;;;8.08;61.28;102402.63;5098880;27;45391;-62
2023/01/27 12:10:28;;;;;;;;;20.33;17.67;;;;;8.11;60.10;102413.16;5098741;27;45466;-63
2023/01/27 12:12:57;;;;;;;;;23.33;16.00;;;;;8.11;60.52;102411.41;5098444;27;45583;-63